Time;durP1;ratioP1;P1;durP2;ratioP2;P2;SDS_P1;SDS_P2;PMS_P1;PMS_P2;Temp;Humidity;BMP_temperature;BMP_pressure;BME280_temperature;BME280_humidity;BME280_pressure;Samples;Min_cycle;Max_cycle;Signal;HPM_P1;HPM_P2
2022/07/22 00:01:50;;;;;;;;;;;;;;;15.16;77.55;98742.38;4715265;30;19935;-82
2022/07/22 00:04:16;;;;;;;;;;;;;;;15.08;77.65;98740.25;4715477;30;19931;-82
2022/07/22 00:06:43;;;;;;;;;;;;;;;15.04;77.88;98747.31;4715291;30;19931;-81
2022/07/22 00:09:10;;;;;;;;;;;;;;;15.01;78.18;98750.59;4715421;30;20373;-83
2022/07/22 00:11:37;;;;;;;;;;;;;;;15.02;78.32;98760.41;4715284;30;20025;-81
2022/07/22 00:14:04;;;;;;;;;;;;;;;15.04;78.18;98759.03;4715251;30;19931;-81
2022/07/22 00:16:32;;;;;;;;;;;;;;;15.03;78.17;98749.22;4714958;30;19930;-81
2022/07/22 00:18:59;;;;;;;;;;;;;;;15.03;78.31;98762.00;4715455;30;19985;-82
2022/07/22 00:21:26;;;;;;;;;;;;;;;15.03;78.25;98757.38;4714306;30;20391;-81
2022/07/22 00:23:53;;;;;;;;;;;;;;;15.08;78.30;98757.34;4715242;30;19931;-82
2022/07/22 00:26:20;;;;;;;;;;;;;;;15.11;78.03;98747.81;4714335;30;19930;-83
2022/07/22 00:28:47;;;;;;;;;;;;;;;15.12;78.11;98746.75;4699356;30;20354;-81
2022/07/22 00:31:14;;;;;;;;;;;;;;;15.15;77.98;98746.19;4715434;30;20504;-82
2022/07/22 00:33:41;;;;;;;;;;;;;;;15.14;77.96;98745.38;4715236;30;19937;-82
2022/07/22 00:36:08;;;;;;;;;;;;;;;15.17;78.11;98752.16;4715273;30;19973;-82
2022/07/22 00:38:39;;;;;;;;;;;;;;;15.25;77.93;98750.75;4706419;30;20421;-83
2022/07/22 00:41:06;;;;;;;;;;;;;;;15.29;77.69;98746.38;4732749;30;19934;-82
2022/07/22 00:43:51;;;;;;;;;;;;;;;15.32;77.74;98743.09;4732548;30;19930;-84
2022/07/22 00:46:22;;;;;;;;;;;;;;;15.38;77.62;98744.69;4732419;30;20000;-84
2022/07/22 00:48:49;;;;;;;;;;;;;;;15.39;77.51;98749.84;4716564;30;19934;-84
2022/07/22 00:51:16;;;;;;;;;;;;;;;15.40;77.51;98745.22;4732483;30;20033;-84
2022/07/22 00:53:45;;;;;;;;;;;;;;;15.42;77.46;98753.91;4732378;30;19930;-81
2022/07/22 00:56:12;;;;;;;;;;;;;;;15.45;77.46;98757.97;4731676;30;19930;-82
2022/07/22 00:58:39;;;;;;;;;;;;;;;15.49;77.37;98751.66;4731116;30;19987;-82
2022/07/22 01:01:06;;;;;;;;;;;;;;;15.54;77.32;98746.19;4732641;30;19935;-81
2022/07/22 01:03:34;;;;;;;;;;;;;;;15.58;76.96;98746.44;4730889;30;19965;-82
2022/07/22 01:06:11;;;;;;;;;;;;;;;15.57;77.10;98758.41;4731326;30;20391;-82
2022/07/22 01:08:38;;;;;;;;;;;;;;;15.55;77.02;98758.72;4732308;30;20375;-82
2022/07/22 01:11:12;;;;;;;;;;;;;;;15.55;77.10;98761.44;4735487;30;20403;-81
2022/07/22 01:13:39;;;;;;;;;;;;;;;15.56;77.11;98765.75;4736034;30;19937;-81
2022/07/22 01:16:08;;;;;;;;;;;;;;;15.54;77.28;98776.09;4735496;30;19937;-83
2022/07/22 01:18:35;;;;;;;;;;;;;;;15.54;77.31;98770.66;4733288;30;19958;-82
2022/07/22 01:21:04;;;;;;;;;;;;;;;15.53;77.23;98771.78;4718701;30;19931;-81
2022/07/22 01:23:31;;;;;;;;;;;;;;;15.51;77.42;98775.88;4717797;30;20418;-83
2022/07/22 01:25:59;;;;;;;;;;;;;;;15.48;77.48;98771.81;4717780;30;19996;-82
2022/07/22 01:28:26;;;;;;;;;;;;;;;15.44;77.77;98773.44;4717726;30;20033;-82
2022/07/22 01:30:55;;;;;;;;;;;;;;;15.37;77.85;98775.69;4717312;30;19978;-83
2022/07/22 01:33:23;;;;;;;;;;;;;;;15.32;78.02;98771.09;4716972;30;19985;-83
2022/07/22 01:35:50;;;;;;;;;;;;;;;15.30;78.21;98769.75;4702808;30;19941;-83
2022/07/22 01:38:17;;;;;;;;;;;;;;;15.29;78.37;98773.53;4718591;30;19930;-82
2022/07/22 01:40:57;;;;;;;;;;;;;;;15.31;78.21;98776.81;4717066;30;20395;-82
2022/07/22 01:43:26;;;;;;;;;;;;;;;15.30;78.26;98781.44;4717308;30;19931;-84
2022/07/22 01:45:53;;;;;;;;;;;;;;;15.29;78.41;98773.53;4718385;30;19993;-83
2022/07/22 01:48:21;;;;;;;;;;;;;;;15.29;78.56;98778.97;4717384;30;20414;-81
2022/07/22 01:50:48;;;;;;;;;;;;;;;15.29;78.62;98781.69;4718129;30;20399;-83
2022/07/22 01:53:25;;;;;;;;;;;;;;;15.30;78.72;98776.00;4703268;30;19930;-82
2022/07/22 01:55:52;;;;;;;;;;;;;;;15.31;78.63;98780.31;4716926;30;20150;-82
2022/07/22 01:58:20;;;;;;;;;;;;;;;15.30;78.78;98776.00;4715889;30;19935;-81
2022/07/22 02:00:47;;;;;;;;;;;;;;;15.28;78.84;98772.75;4701506;30;19931;-82
2022/07/22 02:03:14;;;;;;;;;;;;;;;15.24;78.87;98777.09;4701683;30;19931;-83
2022/07/22 02:05:41;;;;;;;;;;;;;;;15.22;79.17;98783.91;4715535;30;20034;-82
2022/07/22 02:08:19;;;;;;;;;;;;;;;15.18;79.36;98779.03;4701655;30;19931;-82
2022/07/22 02:11:09;;;;;;;;;;;;;;;15.18;79.22;98772.81;4681309;30;20268;-81
2022/07/22 02:13:47;;;;;;;;;;;;;;;15.25;79.11;98783.38;4681108;30;20404;-83
2022/07/22 02:16:17;;;;;;;;;;;;;;;15.29;79.14;98789.84;4685789;30;19931;-82
2022/07/22 02:18:47;;;;;;;;;;;;;;;15.32;78.85;98789.31;4690420;30;19932;-82
2022/07/22 02:21:14;;;;;;;;;;;;;;;15.34;78.81;98793.38;4689414;30;19932;-81
2022/07/22 02:23:41;;;;;;;;;;;;;;;15.38;78.70;98790.91;4685077;30;20348;-82
2022/07/22 02:26:09;;;;;;;;;;;;;;;15.48;78.38;98803.63;4680982;30;19940;-82
2022/07/22 02:28:36;;;;;;;;;;;;;;;15.52;78.23;98801.97;4669641;30;20037;-82
2022/07/22 02:31:04;;;;;;;;;;;;;;;15.58;77.99;98804.38;4698135;30;19934;-83
2022/07/22 02:33:32;;;;;;;;;;;;;;;15.65;77.68;98809.50;4712713;30;19938;-82
2022/07/22 02:36:00;;;;;;;;;;;;;;;15.70;77.44;98805.94;4683728;30;20029;-83
2022/07/22 02:38:27;;;;;;;;;;;;;;;15.73;77.35;98810.84;4683660;30;19931;-81
2022/07/22 02:40:54;;;;;;;;;;;;;;;15.77;77.24;98812.72;4697832;30;19938;-82
2022/07/22 02:43:21;;;;;;;;;;;;;;;15.81;76.99;98819.19;4683901;30;20034;-82
2022/07/22 02:45:50;;;;;;;;;;;;;;;15.89;76.72;98815.06;4683390;30;19978;-82
2022/07/22 02:48:18;;;;;;;;;;;;;;;16.02;76.26;98824.50;4699698;30;20463;-82
2022/07/22 02:50:46;;;;;;;;;;;;;;;16.10;75.86;98826.59;4716500;30;19931;-83
2022/07/22 02:53:18;;;;;;;;;;;;;;;16.08;75.79;98827.97;4702807;30;20423;-84
2022/07/22 02:55:46;;;;;;;;;;;;;;;16.06;75.76;98831.00;4745284;30;19930;-83
2022/07/22 02:58:12;;;;;;;;;;;;;;;16.06;75.60;98835.63;4716299;30;20021;-82
2022/07/22 03:00:43;;;;;;;;;;;;;;;16.06;75.75;98825.56;4716895;30;19981;-82
2022/07/22 03:03:11;;;;;;;;;;;;;;;16.06;75.70;98835.63;4745188;30;19977;-83
2022/07/22 03:05:38;;;;;;;;;;;;;;;16.07;75.62;98842.69;4698440;30;19958;-82
2022/07/22 03:08:27;;;;;;;;;;;;;;;16.11;75.58;98832.88;4727570;30;19935;-81
2022/07/22 03:10:54;;;;;;;;;;;;;;;16.14;75.57;98835.03;4712619;30;20057;-83
2022/07/22 03:13:21;;;;;;;;;;;;;;;16.14;75.29;98832.28;4712997;30;20384;-81
2022/07/22 03:15:52;;;;;;;;;;;;;;;16.19;75.12;98837.69;4698329;30;19931;-81
2022/07/22 03:18:20;;;;;;;;;;;;;;;16.20;75.03;98840.16;4713195;30;19978;-81
2022/07/22 03:20:47;;;;;;;;;;;;;;;16.27;75.06;98841.72;4699351;30;20386;-81
2022/07/22 03:23:15;;;;;;;;;;;;;;;16.28;74.80;98841.44;4699233;30;20419;-83
2022/07/22 03:25:42;;;;;;;;;;;;;;;16.35;74.67;98850.06;4726827;30;19931;-82
2022/07/22 03:28:12;;;;;;;;;;;;;;;16.43;74.54;98859.53;4727379;30;19970;-81
2022/07/22 03:30:42;;;;;;;;;;;;;;;16.52;74.29;98867.91;4698243;30;20041;-82
2022/07/22 03:33:09;;;;;;;;;;;;;;;16.58;73.93;98866.75;4726678;30;19938;-81
2022/07/22 03:35:39;;;;;;;;;;;;;;;16.48;74.20;98878.53;4697772;30;20009;-81
2022/07/22 03:38:10;;;;;;;;;;;;;;;16.50;74.16;98879.06;4698205;30;19931;-80
2022/07/22 03:40:38;;;;;;;;;;;;;;;16.57;74.17;98876.84;4697795;30;19977;-81
2022/07/22 03:43:07;;;;;;;;;;;;;;;16.60;74.06;98880.91;4697926;30;20021;-82
2022/07/22 03:45:34;;;;;;;;;;;;;;;16.61;74.11;98874.34;4697948;30;20042;-82
2022/07/22 03:48:01;;;;;;;;;;;;;;;16.62;73.99;98881.44;4726991;30;19935;-82
2022/07/22 03:50:36;;;;;;;;;;;;;;;16.63;74.05;98881.13;4698154;30;19935;-82
2022/07/22 03:53:05;;;;;;;;;;;;;;;16.71;74.00;98879.72;4697841;30;19930;-82
2022/07/22 03:55:36;;;;;;;;;;;;;;;16.66;74.14;98886.03;4726760;30;20399;-80
2022/07/22 03:58:04;;;;;;;;;;;;;;;16.70;74.01;98886.25;4726856;30;19981;-83
2022/07/22 04:00:31;;;;;;;;;;;;;;;16.75;73.97;98891.66;4699203;30;20387;-83
2022/07/22 04:03:02;;;;;;;;;;;;;;;16.80;73.65;98888.91;4684037;30;20399;-82
2022/07/22 04:05:49;;;;;;;;;;;;;;;16.85;73.21;98902.47;4709592;30;19989;-82
2022/07/22 04:08:26;;;;;;;;;;;;;;;16.88;73.17;98901.91;4714961;30;19953;-82
2022/07/22 04:10:53;;;;;;;;;;;;;;;17.00;73.20;98904.22;4714396;30;19938;-82
2022/07/22 04:13:22;;;;;;;;;;;;;;;17.00;72.89;98911.59;4717442;30;20036;-82
2022/07/22 04:15:55;;;;;;;;;;;;;;;17.03;72.86;98903.66;4714289;30;19931;-83
2022/07/22 04:18:22;;;;;;;;;;;;;;;17.03;72.56;98909.09;4705108;30;19930;-83
2022/07/22 04:20:49;;;;;;;;;;;;;;;17.07;72.24;98909.34;4699945;30;20045;-82
2022/07/22 04:23:32;;;;;;;;;;;;;;;17.14;72.45;98912.53;4689249;30;20395;-82
2022/07/22 04:26:19;;;;;;;;;;;;;;;17.19;71.97;98907.03;4706560;30;20035;-82
2022/07/22 04:29:00;;;;;;;;;;;;;;;17.24;72.03;98904.25;4688647;30;19931;-83
2022/07/22 04:31:28;;;;;;;;;;;;;;;17.31;72.14;98915.59;4688373;30;20296;-83
2022/07/22 04:34:01;;;;;;;;;;;;;;;17.42;71.86;98916.31;4689909;30;20431;-82
2022/07/22 04:36:28;;;;;;;;;;;;;;;17.44;71.45;98908.63;4679745;30;20408;-83
2022/07/22 04:38:55;;;;;;;;;;;;;;;17.52;71.30;98923.53;4688138;30;19931;-84
2022/07/22 04:41:23;;;;;;;;;;;;;;;17.54;71.25;98916.69;4689031;30;19931;-84
2022/07/22 04:43:51;;;;;;;;;;;;;;;17.60;71.02;98922.91;4691382;30;19970;-83
2022/07/22 04:46:21;;;;;;;;;;;;;;;17.66;70.97;98916.25;4706726;30;19941;-83
2022/07/22 04:48:49;;;;;;;;;;;;;;;17.77;70.61;98917.75;4681661;30;19931;-83
2022/07/22 04:51:16;;;;;;;;;;;;;;;17.82;70.06;98919.63;4714687;30;20406;-84
2022/07/22 04:53:46;;;;;;;;;;;;;;;17.90;70.09;98918.97;4716611;30;19937;-82
2022/07/22 04:56:21;;;;;;;;;;;;;;;18.00;69.67;98920.72;4733437;30;19938;-82
2022/07/22 04:58:53;;;;;;;;;;;;;;;18.07;69.63;98925.84;4717567;30;19961;-83
2022/07/22 05:01:28;;;;;;;;;;;;;;;18.21;69.57;98929.44;4718044;30;19961;-82
2022/07/22 05:03:56;;;;;;;;;;;;;;;18.35;69.14;98934.97;4717380;30;19965;-81
2022/07/22 05:06:24;;;;;;;;;;;;;;;18.47;68.87;98935.31;4711581;30;20006;-82
2022/07/22 05:08:53;;;;;;;;;;;;;;;18.61;68.01;98933.44;4715305;30;21708;-82
2022/07/22 05:11:21;;;;;;;;;;;;;;;18.69;67.02;98936.63;4715586;30;20455;-83
2022/07/22 05:13:48;;;;;;;;;;;;;;;18.69;66.63;98944.81;4716264;30;19930;-82
2022/07/22 05:16:15;;;;;;;;;;;;;;;18.73;66.52;98943.88;4716345;30;20021;-82
2022/07/22 05:18:44;;;;;;;;;;;;;;;18.84;66.34;98955.50;4716485;30;20059;-83
2022/07/22 05:21:14;;;;;;;;;;;;;;;18.99;66.17;98947.03;4716289;30;19930;-83
2022/07/22 05:23:42;;;;;;;;;;;;;;;19.07;65.94;98947.47;4716091;30;19934;-85
2022/07/22 05:26:11;;;;;;;;;;;;;;;19.19;65.74;98950.47;4715955;30;20034;-83
2022/07/22 05:28:38;;;;;;;;;;;;;;;19.24;65.10;98942.19;4715850;30;19942;-83
2022/07/22 05:31:06;;;;;;;;;;;;;;;19.26;65.14;98939.97;4715798;30;19935;-83
2022/07/22 05:33:35;;;;;;;;;;;;;;;19.39;64.29;98944.63;4715847;30;19938;-81
2022/07/22 05:36:05;;;;;;;;;;;;;;;19.36;63.98;98945.22;4716906;30;19937;-83
2022/07/22 05:38:37;;;;;;;;;;;;;;;19.40;63.53;98939.97;4713643;30;19937;-83
2022/07/22 05:41:04;;;;;;;;;;;;;;;19.46;63.73;98945.03;4737790;30;20035;-84
2022/07/22 05:43:32;;;;;;;;;;;;;;;19.56;63.45;98949.47;4715845;30;19939;-81
2022/07/22 05:46:00;;;;;;;;;;;;;;;19.62;63.07;98951.00;4716876;30;19954;-81
2022/07/22 05:48:27;;;;;;;;;;;;;;;19.73;63.01;98954.38;4717017;30;19989;-83
2022/07/22 05:50:56;;;;;;;;;;;;;;;19.75;62.35;98957.63;4717740;30;20292;-83
2022/07/22 05:53:23;;;;;;;;;;;;;;;19.87;62.63;98952.41;4716122;30;20618;-83
2022/07/22 05:55:50;;;;;;;;;;;;;;;19.92;62.19;98949.56;4716594;30;20041;-81
2022/07/22 05:58:17;;;;;;;;;;;;;;;20.07;62.18;98956.63;4716026;30;19931;-83
2022/07/22 06:00:45;;;;;;;;;;;;;;;19.95;62.11;98950.88;4700646;30;19930;-83
2022/07/22 06:03:12;;;;;;;;;;;;;;;19.96;62.06;98959.91;4701981;30;19953;-83
2022/07/22 06:05:45;;;;;;;;;;;;;;;20.11;61.65;98956.84;4746072;30;19937;-82
2022/07/22 06:08:12;;;;;;;;;;;;;;;19.87;61.57;98957.88;4717393;30;19935;-81
2022/07/22 06:10:46;;;;;;;;;;;;;;;19.88;61.69;98958.72;4725779;30;19938;-82
2022/07/22 06:13:14;;;;;;;;;;;;;;;20.00;61.60;98964.44;4715831;30;20027;-80
2022/07/22 06:15:42;;;;;;;;;;;;;;;20.20;61.30;98957.72;4715456;30;19935;-80
2022/07/22 06:18:10;;;;;;;;;;;;;;;20.40;60.72;98966.59;4715747;30;20298;-82
2022/07/22 06:20:37;;;;;;;;;;;;;;;20.56;60.53;98960.47;4715758;30;20026;-81
2022/07/22 06:23:07;;;;;;;;;;;;;;;20.74;59.97;98955.91;4700259;30;19985;-81
2022/07/22 06:25:34;;;;;;;;;;;;;;;20.89;59.85;98962.94;4716697;30;19935;-81
2022/07/22 06:28:32;;;;;;;;;;;;;;;21.00;59.62;98966.22;4714302;30;19931;-82
2022/07/22 06:30:59;;;;;;;;;;;;;;;21.11;58.96;98967.56;4728263;30;19931;-80
2022/07/22 06:33:27;;;;;;;;;;;;;;;21.20;58.46;98957.44;4729444;30;19937;-82
2022/07/22 06:35:55;;;;;;;;;;;;;;;21.39;58.44;98956.41;4699471;30;19937;-81
2022/07/22 06:38:25;;;;;;;;;;;;;;;21.43;57.60;98958.22;4700026;30;19942;-81
2022/07/22 06:41:19;;;;;;;;;;;;;;;21.47;57.59;98954.81;4716422;30;19931;-82
2022/07/22 06:44:10;;;;;;;;;;;;;;;21.59;57.20;98964.06;4711101;30;19974;-81
2022/07/22 06:46:56;;;;;;;;;;;;;;;21.82;56.50;98970.25;4714619;30;19937;-81
2022/07/22 06:49:23;;;;;;;;;;;;;;;21.91;55.85;98969.50;4714978;30;19931;-81
2022/07/22 06:51:51;;;;;;;;;;;;;;;21.98;55.54;98965.16;4714562;30;19931;-82
2022/07/22 06:54:22;;;;;;;;;;;;;;;21.82;55.87;98972.22;4714660;30;19934;-81
2022/07/22 06:56:51;;;;;;;;;;;;;;;21.96;55.59;98972.91;4713717;30;19993;-82
2022/07/22 06:59:24;;;;;;;;;;;;;;;21.94;55.73;98964.16;4713431;30;19930;-82
2022/07/22 07:01:52;;;;;;;;;;;;;;;22.03;55.78;98966.94;4713820;30;20284;-82
2022/07/22 07:04:19;;;;;;;;;;;;;;;22.14;55.23;98967.41;4714566;30;19938;-80
2022/07/22 07:06:48;;;;;;;;;;;;;;;22.11;55.54;98962.56;4712583;30;19934;-81
2022/07/22 07:09:48;;;;;;;;;;;;;;;22.17;54.91;98966.78;4677292;30;19932;-79
2022/07/22 07:12:25;;;;;;;;;;;;;;;22.25;55.01;98977.00;4662741;30;19932;-80
2022/07/22 07:15:20;;;;;;;;;;;;;;;22.17;54.81;98973.06;4643899;30;19932;-81
2022/07/22 07:17:54;;;;;;;;;;;;;;;22.22;55.06;98983.94;4621226;30;19979;-80
2022/07/22 07:20:21;;;;;;;;;;;;;;;22.27;54.80;98982.97;4644165;30;19936;-80
2022/07/22 07:22:49;;;;;;;;;;;;;;;22.21;54.82;98974.09;4644099;30;19932;-82
2022/07/22 07:25:16;;;;;;;;;;;;;;;22.48;54.13;98989.47;4644697;30;19959;-82
2022/07/22 07:27:50;;;;;;;;;;;;;;;22.40;54.46;98981.19;4644868;30;19943;-84
2022/07/22 07:30:29;;;;;;;;;;;;;;;22.48;54.16;98986.72;4648699;30;19975;-81
2022/07/22 07:32:57;;;;;;;;;;;;;;;22.54;54.31;98987.34;4620676;30;19932;-81
2022/07/22 07:35:24;;;;;;;;;;;;;;;22.65;53.85;98985.06;4644256;30;20452;-82
2022/07/22 07:37:59;;;;;;;;;;;;;;;22.71;53.94;98981.84;4652055;30;20751;-82
2022/07/22 07:40:27;;;;;;;;;;;;;;;22.82;53.65;98985.06;4665261;30;19936;-81
2022/07/22 07:42:54;;;;;;;;;;;;;;;22.94;53.41;98987.94;4671983;30;19931;-83
2022/07/22 07:45:29;;;;;;;;;;;;;;;22.96;53.46;98987.59;4704923;30;19965;-83
2022/07/22 07:47:56;;;;;;;;;;;;;;;22.87;53.24;98992.34;4720543;30;19931;-82
2022/07/22 07:50:28;;;;;;;;;;;;;;;22.80;53.60;98998.31;4723129;30;19930;-81
2022/07/22 07:52:56;;;;;;;;;;;;;;;22.77;53.45;99000.94;4721931;30;20417;-82
2022/07/22 07:55:25;;;;;;;;;;;;;;;23.23;52.46;98997.44;4699334;30;19977;-82
2022/07/22 07:57:52;;;;;;;;;;;;;;;23.28;52.16;98989.00;4698021;30;19934;-84
2022/07/22 08:00:23;;;;;;;;;;;;;;;23.45;50.69;98987.34;4697047;30;19935;-82
2022/07/22 08:02:51;;;;;;;;;;;;;;;23.31;51.21;98984.78;4712382;30;19931;-82
2022/07/22 08:05:21;;;;;;;;;;;;;;;23.12;51.73;98993.44;4712685;30;19931;-81
2022/07/22 08:07:50;;;;;;;;;;;;;;;23.60;50.61;98989.53;4713969;30;20380;-82
2022/07/22 08:10:18;;;;;;;;;;;;;;;24.07;49.26;98985.91;4742458;30;19930;-81
2022/07/22 08:13:31;;;;;;;;;;;;;;;23.90;49.40;98986.81;4690791;30;20380;-83
2022/07/22 08:16:12;;;;;;;;;;;;;;;23.58;50.69;98986.31;4711199;30;20038;-81
2022/07/22 08:18:40;;;;;;;;;;;;;;;23.13;51.16;98987.59;4726519;30;20431;-81
2022/07/22 08:21:09;;;;;;;;;;;;;;;22.62;51.99;98994.78;4712568;30;20039;-82
2022/07/22 08:23:52;;;;;;;;;;;;;;;22.31;51.50;98989.47;4711414;30;19974;-82
2022/07/22 08:26:20;;;;;;;;;;;;;;;22.22;51.98;98991.38;4698576;30;19931;-83
2022/07/22 08:28:47;;;;;;;;;;;;;;;22.48;52.02;99005.13;4712268;30;19931;-80
2022/07/22 08:31:14;;;;;;;;;;;;;;;23.24;50.40;98995.50;4734221;30;19934;-82
2022/07/22 08:33:42;;;;;;;;;;;;;;;23.97;49.24;98998.91;4711965;30;19958;-80
2022/07/22 08:36:09;;;;;;;;;;;;;;;24.81;47.57;98990.69;4713909;30;19937;-83
2022/07/22 08:38:36;;;;;;;;;;;;;;;25.51;46.53;98992.69;4713962;30;20272;-82
2022/07/22 08:41:05;;;;;;;;;;;;;;;25.41;46.13;98988.41;4726978;30;19934;-83
2022/07/22 08:43:46;;;;;;;;;;;;;;;24.81;47.28;98998.97;4711745;30;19930;-82
2022/07/22 08:46:14;;;;;;;;;;;;;;;24.40;47.57;99002.53;4697939;30;20355;-82
2022/07/22 08:49:10;;;;;;;;;;;;;;;24.24;47.45;99002.31;4713508;30;20387;-81
2022/07/22 08:51:50;;;;;;;;;;;;;;;24.40;47.35;99005.28;4733772;30;19971;-83
2022/07/22 08:54:20;;;;;;;;;;;;;;;24.40;47.03;99010.78;4720001;30;19961;-82
2022/07/22 08:56:47;;;;;;;;;;;;;;;24.46;46.30;99015.00;4697865;30;20403;-82
2022/07/22 08:59:15;;;;;;;;;;;;;;;24.40;47.10;99014.34;4712471;30;19930;-83
2022/07/22 09:02:21;;;;;;;;;;;;;;;24.45;46.76;99013.38;4712608;30;19935;-83
2022/07/22 09:04:50;;;;;;;;;;;;;;;25.37;45.24;99023.41;4679325;30;19985;-85
2022/07/22 09:07:28;;;;;;;;;;;;;;;26.09;44.09;99009.19;4670669;30;19931;-83
2022/07/22 09:09:58;;;;;;;;;;;;;;;27.27;42.27;99003.47;4685029;30;19931;-83
2022/07/22 09:12:52;;;;;;;;;;;;;;;27.69;41.40;99016.81;4673827;30;19941;-82
2022/07/22 09:15:45;;;;;;;;;;;;;;;26.59;42.62;99022.56;4684418;30;19931;-81
2022/07/22 09:18:46;;;;;;;;;;;;;;;25.46;44.46;99018.59;4684183;30;19935;-82
2022/07/22 09:21:45;;;;;;;;;;;;;;;24.45;46.41;99021.66;4689087;30;19932;-81
2022/07/22 09:24:33;;;;;;;;;;;;;;;23.75;48.08;99035.03;4670822;30;19933;-82
2022/07/22 09:27:10;;;;;;;;;;;;;;;23.20;49.26;99038.59;4677430;30;19931;-83
2022/07/22 09:29:50;;;;;;;;;;;;;;;23.00;49.96;99032.66;4694755;30;19935;-81
2022/07/22 09:32:18;;;;;;;;;;;;;;;24.70;46.28;99030.06;4669555;30;19931;-82
2022/07/22 09:35:01;;;;;;;;;;;;;;;26.07;43.71;99028.06;4701365;30;19930;-80
2022/07/22 09:37:31;;;;;;;;;;;;;;;26.00;43.40;99030.59;4746088;30;19967;-82
2022/07/22 09:40:15;;;;;;;;;;;;;;;25.84;44.28;99028.50;4746099;30;19935;-83
2022/07/22 09:43:00;;;;;;;;;;;;;;;25.52;44.55;99031.03;4701568;30;19943;-81
2022/07/22 09:45:28;;;;;;;;;;;;;;;25.04;44.93;99029.75;4713618;30;20459;-81
2022/07/22 09:47:56;;;;;;;;;;;;;;;24.66;46.10;99032.66;4714690;30;19930;-81
2022/07/22 09:50:32;;;;;;;;;;;;;;;24.21;46.80;99031.38;4714368;30;20454;-80
2022/07/22 09:53:18;;;;;;;;;;;;;;;24.03;47.85;99038.16;4714685;30;19931;-81
2022/07/22 09:56:08;;;;;;;;;;;;;;;23.72;47.80;99042.00;4726886;30;19931;-80
2022/07/22 09:58:38;;;;;;;;;;;;;;;23.52;48.18;99046.28;4727586;30;20021;-83
2022/07/22 10:01:24;;;;;;;;;;;;;;;23.47;48.13;99046.47;4687455;30;20307;-82
2022/07/22 10:03:55;;;;;;;;;;;;;;;24.73;46.02;99043.19;4699184;30;20388;-82
2022/07/22 10:06:25;;;;;;;;;;;;;;;25.02;45.67;99039.53;4698774;30;19935;-81
2022/07/22 10:08:52;;;;;;;;;;;;;;;25.85;43.87;99034.88;4698753;30;20328;-80
2022/07/22 10:11:19;;;;;;;;;;;;;;;25.65;44.03;99039.31;4699366;30;19993;-82
2022/07/22 10:13:46;;;;;;;;;;;;;;;25.52;44.22;99035.72;4699083;30;20295;-81
2022/07/22 10:16:15;;;;;;;;;;;;;;;25.35;44.50;99034.00;4685306;30;19931;-83
2022/07/22 10:18:46;;;;;;;;;;;;;;;25.04;44.84;99035.28;4699223;30;20383;-82
2022/07/22 10:21:16;;;;;;;;;;;;;;;24.59;44.92;99032.44;4699498;30;19931;-81
2022/07/22 10:24:02;;;;;;;;;;;;;;;24.13;46.48;99040.50;4699134;30;19970;-81
2022/07/22 10:26:47;;;;;;;;;;;;;;;23.79;47.21;99045.06;4699204;30;19931;-82
2022/07/22 10:29:33;;;;;;;;;;;;;;;23.67;47.11;99053.16;4698659;30;19931;-83
2022/07/22 10:32:16;;;;;;;;;;;;;;;23.88;46.08;99049.75;4699761;30;19931;-82
2022/07/22 10:34:43;;;;;;;;;;;;;;;25.39;44.11;99034.91;4699747;30;19935;-83
2022/07/22 10:37:33;;;;;;;;;;;;;;;25.57;42.68;99049.31;4699982;30;19938;-82
2022/07/22 10:40:11;;;;;;;;;;;;;;;24.96;43.62;99038.91;4699625;30;19935;-82
2022/07/22 10:42:59;;;;;;;;;;;;;;;24.43;44.78;99044.03;4699445;30;19934;-82
2022/07/22 10:45:49;;;;;;;;;;;;;;;24.02;45.13;99053.84;4696069;30;19931;-81
2022/07/22 10:48:23;;;;;;;;;;;;;;;23.88;45.82;99047.78;4699613;30;19931;-81
2022/07/22 10:50:51;;;;;;;;;;;;;;;24.31;45.25;99048.69;4699722;30;19948;-82
2022/07/22 10:53:19;;;;;;;;;;;;;;;25.86;43.14;99047.56;4698866;30;19967;-82
2022/07/22 10:55:58;;;;;;;;;;;;;;;26.43;41.62;99045.75;4698457;30;19930;-82
2022/07/22 10:58:34;;;;;;;;;;;;;;;26.47;41.86;99043.91;4699758;30;19938;-81
2022/07/22 11:01:03;;;;;;;;;;;;;;;26.84;41.18;99052.94;4699766;30;20025;-83
2022/07/22 11:03:33;;;;;;;;;;;;;;;26.88;40.15;99041.97;4698378;30;20040;-82
2022/07/22 11:06:22;;;;;;;;;;;;;;;26.53;40.65;99037.78;4698399;30;19935;-82
2022/07/22 11:08:51;;;;;;;;;;;;;;;25.99;41.93;99049.16;4697981;30;19931;-81
2022/07/22 11:11:18;;;;;;;;;;;;;;;25.60;42.59;99043.13;4699440;30;19931;-82
2022/07/22 11:13:46;;;;;;;;;;;;;;;25.20;43.09;99043.75;4699118;30;20384;-81
2022/07/22 11:16:25;;;;;;;;;;;;;;;24.78;43.20;99037.44;4683908;30;20019;-81
2022/07/22 11:18:54;;;;;;;;;;;;;;;24.39;44.27;99045.84;4698037;30;20383;-82
2022/07/22 11:21:23;;;;;;;;;;;;;;;24.14;44.80;99044.88;4684628;30;19935;-82
2022/07/22 11:23:56;;;;;;;;;;;;;;;24.09;45.28;99044.25;4697995;30;19931;-82
2022/07/22 11:26:25;;;;;;;;;;;;;;;24.17;45.85;99046.97;4699189;30;19931;-82
2022/07/22 11:28:52;;;;;;;;;;;;;;;24.35;45.76;99052.38;4698900;30;19962;-81
2022/07/22 11:31:19;;;;;;;;;;;;;;;24.58;45.43;99044.59;4699377;30;19931;-81
2022/07/22 11:33:46;;;;;;;;;;;;;;;24.83;45.26;99042.75;4697672;30;19939;-80
2022/07/22 11:36:16;;;;;;;;;;;;;;;25.30;44.38;99036.97;4698834;30;19931;-81
2022/07/22 11:38:47;;;;;;;;;;;;;;;26.98;41.80;99042.25;4698641;30;20296;-82
2022/07/22 11:41:19;;;;;;;;;;;;;;;28.78;39.09;99033.56;4699121;30;19931;-81
2022/07/22 11:43:47;;;;;;;;;;;;;;;28.96;38.46;99033.94;4699126;30;20108;-83
2022/07/22 11:46:17;;;;;;;;;;;;;;;29.11;38.13;99027.50;4699150;30;19935;-82
2022/07/22 11:48:44;;;;;;;;;;;;;;;28.68;38.46;99034.16;4697887;30;19931;-81
2022/07/22 11:51:11;;;;;;;;;;;;;;;27.90;38.58;99025.66;4697904;30;19997;-81
2022/07/22 11:53:56;;;;;;;;;;;;;;;26.90;39.53;99021.06;4698165;30;19931;-82
2022/07/22 11:56:24;;;;;;;;;;;;;;;26.28;40.55;99028.75;4697547;30;20277;-81
2022/07/22 11:58:54;;;;;;;;;;;;;;;25.88;41.36;99029.47;4698657;30;19931;-82
2022/07/22 12:01:25;;;;;;;;;;;;;;;25.54;42.52;99038.97;4699003;30;19974;-82
2022/07/22 12:03:54;;;;;;;;;;;;;;;25.30;43.11;99023.16;4698205;30;19931;-81
2022/07/22 12:06:21;;;;;;;;;;;;;;;25.16;43.17;99028.16;4698032;30;19938;-82
2022/07/22 12:08:49;;;;;;;;;;;;;;;25.15;42.57;99024.59;4668746;30;19931;-82
2022/07/22 12:11:17;;;;;;;;;;;;;;;25.16;42.50;99028.16;4697244;30;19937;-82
2022/07/22 12:13:45;;;;;;;;;;;;;;;25.36;42.39;99027.31;4698172;30;19931;-81
2022/07/22 12:16:20;;;;;;;;;;;;;;;25.76;41.55;99029.44;4698882;30;19931;-82
2022/07/22 12:18:57;;;;;;;;;;;;;;;26.41;40.71;99028.69;4696988;30;19934;-82
2022/07/22 12:21:25;;;;;;;;;;;;;;;29.02;37.36;99023.31;4698634;30;19989;-81
2022/07/22 12:23:53;;;;;;;;;;;;;;;31.00;34.85;99026.06;4698497;30;20268;-82
2022/07/22 12:26:38;;;;;;;;;;;;;;;31.91;33.16;99023.72;4698240;30;20399;-82
2022/07/22 12:29:25;;;;;;;;;;;;;;;31.04;34.03;99018.53;4698397;30;19954;-83
2022/07/22 12:31:57;;;;;;;;;;;;;;;30.99;33.33;99021.69;4697201;30;20320;-83
2022/07/22 12:34:38;;;;;;;;;;;;;;;29.72;34.01;99017.47;4697387;30;19970;-82
2022/07/22 12:37:11;;;;;;;;;;;;;;;29.15;34.63;99027.59;4696926;30;20319;-82
2022/07/22 12:39:38;;;;;;;;;;;;;;;30.27;33.70;99014.38;4698761;30;19935;-82
2022/07/22 12:42:16;;;;;;;;;;;;;;;30.57;33.27;99016.34;4698178;30;19942;-82
2022/07/22 12:44:53;;;;;;;;;;;;;;;30.01;33.67;99020.72;4698522;30;19993;-83
2022/07/22 12:47:39;;;;;;;;;;;;;;;29.47;34.07;99025.38;4698951;30;19931;-83
2022/07/22 12:50:18;;;;;;;;;;;;;;;29.02;34.48;99017.75;4698770;30;19935;-81
2022/07/22 12:52:45;;;;;;;;;;;;;;;29.32;34.22;99024.34;4682415;30;20025;-82
2022/07/22 12:55:33;;;;;;;;;;;;;;;29.49;33.90;99017.47;4698269;30;20359;-83
2022/07/22 12:57:59;;;;;;;;;;;;;;;30.01;33.16;99018.75;4698066;30;19982;-83
2022/07/22 13:00:28;;;;;;;;;;;;;;;30.64;32.33;99022.81;4698623;30;19931;-83
2022/07/22 13:02:56;;;;;;;;;;;;;;;29.83;33.44;99019.63;4698017;30;19931;-81
2022/07/22 13:05:23;;;;;;;;;;;;;;;29.15;34.20;99020.06;4697636;30;19942;-82
2022/07/22 13:07:52;;;;;;;;;;;;;;;29.84;33.29;99019.28;4700458;30;20034;-82
2022/07/22 13:10:23;;;;;;;;;;;;;;;32.38;29.89;99016.44;4701478;30;20037;-82
2022/07/22 13:12:51;;;;;;;;;;;;;;;32.79;29.21;99021.06;4700349;30;20017;-84